Time;durP1;ratioP1;P1;durP2;ratioP2;P2;SDS_P1;SDS_P2;PMS_P1;PMS_P2;Temp;Humidity;BMP_temperature;BMP_pressure;BME280_temperature;BME280_humidity;BME280_pressure;Samples;Min_cycle;Max_cycle;Signal;HPM_P1;HPM_P2
2022/04/30 00:01:33;;;;;;;3.47;3.17;;;;;;;13.57;58.61;94833.06;2617441;54;20163;-82
2022/04/30 00:04:02;;;;;;;4.87;4.00;;;;;;;13.70;59.97;94886.75;2617284;54;20160;-83
2022/04/30 00:06:34;;;;;;;3.83;3.50;;;;;;;12.77;61.37;94828.19;2617438;54;20156;-82
2022/04/30 00:09:12;;;;;;;4.23;3.33;;;;;;;13.18;61.94;94874.78;2617234;47;20176;-82
2022/04/30 00:11:46;;;;;;;4.53;4.17;;;;;;;13.53;61.28;94879.94;2617406;47;20719;-82
2022/04/30 00:14:29;;;;;;;;;;;;;;;;;;;;;
2022/04/30 00:17:18;;;;;;;;;;;;;;;;;;;;;
2022/04/30 00:19:52;;;;;;;3.37;3.07;;;;;;;15.67;53.83;94810.88;2617169;47;20232;-83
2022/04/30 00:22:21;;;;;;;4.70;3.83;;;;;;;16.52;52.70;94882.81;2617180;47;20144;-80
2022/04/30 00:24:54;;;;;;;3.97;2.77;;;;;;;16.89;51.67;94881.88;2617245;54;20156;-82
2022/04/30 00:27:39;;;;;;;5.77;3.83;;;;;;;16.85;51.05;94855.34;2616900;54;20277;-82
2022/04/30 00:30:24;;;;;;;3.40;3.10;;;;;;;16.99;50.62;94847.66;2617172;47;20145;-82
2022/04/30 00:32:54;;;;;;;3.87;3.53;;;;;;;16.99;49.76;94832.63;2618000;47;20692;-83
2022/04/30 00:35:25;;;;;;;3.10;2.73;;;;;;;17.42;49.68;94882.44;2617105;54;20152;-82
2022/04/30 00:37:54;;;;;;;4.33;3.93;;;;;;;17.37;49.47;94873.06;2617584;54;20673;-81
2022/04/30 00:40:23;;;;;;;4.50;3.03;;;;;;;17.46;49.63;94873.16;2617454;47;20148;-80
2022/04/30 00:42:59;;;;;;;3.67;3.30;;;;;;;17.14;48.98;94816.31;2617591;54;20164;-80
2022/04/30 00:45:36;;;;;;;5.40;3.97;;;;;;;17.57;49.25;94883.28;2617627;54;20264;-80
2022/04/30 00:48:07;;;;;;;8.27;3.60;;;;;;;17.40;49.16;94860.22;2618260;39;20528;-79
2022/04/30 00:53:22;;;;;;;5.07;3.20;;;;;;;17.55;48.68;94869.69;2617514;51;20160;-80
2022/04/30 00:55:52;;;;;;;3.73;3.43;;;;;;;17.08;49.44;94859.91;2617887;54;20153;-81
2022/04/30 01:01:08;;;;;;;4.40;3.33;;;;;;;14.93;54.47;94828.13;2617625;47;20145;-82
2022/04/30 01:03:37;;;;;;;3.27;2.97;;;;;;;15.19;54.53;94865.69;2617686;47;20153;-81
2022/04/30 01:06:18;;;;;;;4.43;3.23;;;;;;;16.07;53.34;94873.59;2617308;47;20145;-80
2022/04/30 01:08:48;;;;;;;4.07;3.67;;;;;;;14.65;53.32;94754.19;2617580;47;20180;-80
2022/04/30 01:11:20;;;;;;;6.67;3.30;;;;;;;14.92;55.79;94880.88;2617477;54;20145;-81
2022/04/30 01:13:49;;;;;;;2.93;2.57;;;;;;;15.24;55.69;94870.06;2617564;54;20157;-81
2022/04/30 01:16:29;;;;;;;3.07;2.70;;;;;;;16.04;52.82;94848.53;2617571;54;20149;-81
2022/04/30 01:18:58;;;;;;;3.60;3.17;;;;;;;15.45;52.42;94804.75;2617381;47;20157;-80
2022/04/30 01:21:31;;;;;;;3.47;2.43;;;;;;;16.63;51.57;94872.97;2617702;54;20200;-80
2022/04/30 01:24:11;;;;;;;3.33;3.00;;;;;;;16.83;50.92;94861.75;2617713;54;20149;-81
2022/04/30 01:26:40;;;;;;;3.87;3.10;;;;;;;15.13;52.70;94836.34;2617611;54;20149;-79
2022/04/30 01:29:09;;;;;;;5.50;4.07;;;;;;;15.41;55.04;94873.94;2617540;54;20153;-79
2022/04/30 01:39:52;;;;;;;3.93;3.57;;;;;;;14.44;54.61;94787.28;2618088;47;20656;-81
2022/04/30 01:42:31;;;;;;;2.80;2.60;;;;;;;15.84;53.70;94860.41;2618249;54;20170;-80
2022/04/30 01:45:07;;;;;;;4.17;2.70;;;;;;;16.52;51.73;94871.38;2618288;47;20145;-80
2022/04/30 01:47:44;;;;;;;3.70;2.77;;;;;;;16.78;51.07;94863.16;2618251;54;20167;-80
2022/04/30 01:50:13;;;;;;;4.30;3.40;;;;;;;16.96;50.46;94860.47;2618199;47;20144;-79
2022/04/30 01:52:42;;;;;;;3.33;3.03;;;;;;;17.13;49.87;94869.25;2618287;47;20152;-80
2022/04/30 01:55:22;;;;;;;2.80;2.60;;;;;;;16.34;50.08;94854.69;2618213;54;20164;-81
2022/04/30 01:57:54;;;;;;;8.20;2.70;;;;;;;15.64;51.96;94850.09;2618246;47;20264;-79
2022/04/30 02:00:23;;;;;;;4.30;2.83;;;;;;;15.30;52.58;94826.66;2618097;47;20145;-80
2022/04/30 02:02:54;;;;;;;2.93;2.73;;;;;;;14.98;53.27;94811.81;2618205;47;20269;-80
2022/04/30 02:05:23;;;;;;;4.47;2.53;;;;;;;15.68;53.32;94860.84;2618163;47;20172;-82
2022/04/30 02:08:05;;;;;;;3.03;2.83;;;;;;;15.60;52.37;94866.41;2618135;47;20145;-80
2022/04/30 02:10:38;;;;;;;2.73;2.53;;;;;;;15.76;53.60;94865.97;2618226;46;20145;-80
2022/04/30 02:13:08;;;;;;;2.20;2.10;;;;;;;16.15;51.30;94827.97;2618182;54;20153;-81
2022/04/30 02:15:38;;;;;;;6.63;2.30;;;;;;;16.55;50.56;94859.25;2617977;47;20736;-81
2022/04/30 02:18:12;;;;;;;5.27;2.87;;;;;;;16.75;50.18;94864.53;2618241;54;20712;-82
2022/04/30 02:20:50;;;;;;;3.37;3.07;;;;;;;16.10;50.06;94768.63;2618853;31;20629;-80
2022/04/30 02:23:22;;;;;;;3.73;3.43;;;;;;;15.96;50.73;94860.56;2618047;54;20152;-80
2022/04/30 02:26:04;;;;;;;2.70;2.50;;;;;;;15.48;51.23;94803.38;2618111;47;20660;-80
2022/04/30 02:28:36;;;;;;;4.13;2.60;;;;;;;15.37;51.91;94833.91;2618040;54;20149;-80
2022/04/30 02:31:25;;;;;;;2.10;1.90;;;;;;;16.14;51.73;94834.38;2617948;47;20680;-79
2022/04/30 02:34:06;;;;;;;;;;;;;;;;;;;;;
2022/04/30 02:36:38;;;;;;;2.67;2.47;;;;;;;15.95;49.56;94710.59;2618017;54;20185;-81
2022/04/30 02:42:19;;;;;;;5.70;2.97;;;;;;;16.12;49.73;94757.25;2617732;47;20149;-80
2022/04/30 02:44:48;;;;;;;2.67;2.33;;;;;;;16.21;49.66;94755.91;2618178;54;20173;-81
2022/04/30 02:47:17;;;;;;;3.87;2.77;;;;;;;16.69;48.18;94850.16;2618022;54;20145;-80
2022/04/30 02:49:46;;;;;;;3.97;2.50;;;;;;;16.78;49.93;94854.56;2618091;47;20156;-79
2022/04/30 02:52:19;;;;;;;3.63;2.60;;;;;;;16.68;48.97;94808.66;2617908;54;20149;-79
2022/04/30 03:00:42;;;;;;;3.03;2.83;;;;;;;13.55;56.17;94841.53;2617933;54;20145;-81
2022/04/30 03:03:18;;;;;;;2.70;2.50;;;;;;;12.63;56.80;94725.53;2617993;54;20145;-80
2022/04/30 03:08:30;;;;;;;3.60;3.17;;;;;;;14.08;57.98;94849.88;2617971;47;20156;-80
2022/04/30 03:10:59;;;;;;;3.40;2.07;;;;;;;15.14;54.35;94827.09;2618365;39;20550;-82
2022/04/30 03:13:31;;;;;;;2.50;2.20;;;;;;;14.67;54.59;94836.91;2617968;47;20145;-81
2022/04/30 03:21:41;;;;;;;2.83;2.63;;;;;;;14.39;54.77;94779.31;2618094;54;20145;-80
2022/04/30 03:21:52;;;;;;;2.90;2.60;;;;;;;15.72;52.99;94846.63;2617884;54;20671;-80
2022/04/30 03:24:27;;;;;;;2.70;2.50;;;;;;;16.27;51.07;94842.44;2617800;54;20156;-79
2022/04/30 03:29:40;;;;;;;2.60;2.40;;;;;;;16.45;50.51;94853.41;2617743;47;20153;-81
2022/04/30 03:32:10;;;;;;;3.40;2.60;;;;;;;16.76;49.68;94848.09;2617677;47;20240;-80
2022/04/30 03:34:39;;;;;;;3.63;2.87;;;;;;;16.04;48.93;94811.41;2617955;54;20649;-81
2022/04/30 03:37:16;;;;;;;3.17;2.90;;;;;;;15.69;50.73;94781.63;2618023;39;20536;-80
2022/04/30 03:39:54;;;;;;;2.47;2.27;;;;;;;15.56;51.13;94775.00;2617912;54;20148;-81
2022/04/30 03:45:53;;;;;;;3.13;2.83;;;;;;;15.05;49.09;94616.56;2617644;47;20164;-83
2022/04/30 03:48:42;;;;;;;2.97;2.67;;;;;;;15.80;49.00;94723.25;2617803;47;20149;-81
2022/04/30 03:51:10;;;;;;;2.70;2.50;;;;;;;16.93;49.19;94867.63;2617663;47;20176;-81
2022/04/30 03:53:39;;;;;;;3.47;2.93;;;;;;;16.30;49.00;94783.16;2617379;47;20160;-81
2022/04/30 03:57:00;;;;;;;;;;;;;;;;;;;;;
2022/04/30 03:59:34;;;;;;;2.23;2.13;;;;;;;14.81;49.20;94616.91;2617815;54;20165;-81
2022/04/30 04:02:06;;;;;;;2.80;2.57;;;;;;;16.72;48.96;94862.34;2618069;54;20794;-81
2022/04/30 04:04:35;;;;;;;3.53;2.97;;;;;;;16.44;49.44;94831.94;2617703;47;20145;-80
2022/04/30 04:07:10;;;;;;;3.40;3.20;;;;;;;16.57;49.49;94864.28;2618140;54;20156;-81
2022/04/30 04:10:09;;;;;;;2.40;2.30;;;;;;;15.87;50.00;94790.44;2617766;47;20913;-81
2022/04/30 04:12:38;;;;;;;2.67;2.47;;;;;;;15.47;49.42;94705.63;2617930;54;20180;-81
2022/04/30 04:17:52;;;;;;;4.50;2.83;;;;;;;15.99;49.32;94764.91;2617506;47;20155;-81
2022/04/30 04:20:24;;;;;;;3.23;2.93;;;;;;;16.18;48.74;94778.03;2617673;54;20188;-81
2022/04/30 04:22:57;;;;;;;3.03;2.77;;;;;;;16.60;49.13;94828.56;2617781;54;20723;-81
2022/04/30 04:28:13;;;;;;;3.30;2.67;;;;;;;16.75;48.47;94823.78;2617766;47;20141;-82
2022/04/30 04:30:42;;;;;;;3.67;2.93;;;;;;;17.24;48.13;94874.38;2617305;47;20660;-82
2022/04/30 04:33:26;;;;;;;3.43;3.13;;;;;;;16.76;47.99;94805.19;2617746;46;20219;-81
2022/04/30 04:35:57;;;;;;;3.43;3.23;;;;;;;16.66;48.05;94780.06;2617814;47;20271;-81
2022/04/30 04:38:29;;;;;;;3.57;3.10;;;;;;;15.53;48.44;94728.56;2617822;54;20240;-81
2022/04/30 04:40:58;;;;;;;3.67;3.37;;;;;;;15.53;50.97;94827.75;2618068;39;20551;-81
2022/04/30 04:43:27;;;;;;;4.75;3.47;;;;;;;16.51;50.03;94875.66;2617979;39;20761;-81
2022/04/30 04:45:56;;;;;;;3.60;2.77;;;;;;;16.67;48.91;94835.84;2617763;54;20153;-80
2022/04/30 04:48:35;;;;;;;2.80;2.53;;;;;;;16.57;48.60;94799.22;2617471;54;20157;-81
2022/04/30 04:51:07;;;;;;;3.30;3.00;;;;;;;17.14;48.44;94879.28;2616437;47;20144;-81
2022/04/30 04:53:37;;;;;;;2.77;2.57;;;;;;;16.94;47.75;94857.63;2617876;39;20554;-80
2022/04/30 04:56:06;;;;;;;3.20;2.70;;;;;;;16.49;49.25;94867.75;2617133;54;20152;-79
2022/04/30 04:58:35;;;;;;;1.63;1.60;;;;;;;16.86;48.74;94885.41;2616676;54;20152;-79
2022/04/30 05:04:05;;;;;;;3.43;3.13;;;;;;;16.53;49.59;94864.25;2617188;47;20164;-82
2022/04/30 05:06:40;;;;;;;3.03;2.83;;;;;;;16.01;49.12;94773.50;2617458;54;20248;-82
2022/04/30 05:12:01;;;;;;;2.90;2.70;;;;;;;17.03;48.79;94884.91;2617221;51;20244;-81
2022/04/30 05:14:38;;;;;;;4.57;3.72;;;;;;;16.54;48.93;94859.94;2617743;39;20856;-81
2022/04/30 05:17:10;;;;;;;7.00;3.77;;;;;;;16.74;48.92;94903.13;2618545;39;20616;-81
2022/04/30 05:19:42;;;;;;;4.97;3.00;;;;;;;16.50;49.48;94877.06;2618283;54;20668;-81
2022/04/30 05:22:13;;;;;;;2.60;2.40;;;;;;;16.29;50.17;94864.59;2617416;47;20145;-81
2022/04/30 05:24:45;;;;;;;5.30;3.03;;;;;;;16.45;50.58;94892.69;2616648;54;20265;-81
2022/04/30 05:30:13;;;;;;;5.90;2.87;;;;;;;17.36;48.23;94890.94;2618012;47;20629;-82
2022/04/30 05:32:43;;;;;;;4.80;3.53;;;;;;;17.27;48.44;94895.16;2618304;54;20152;-81
2022/04/30 05:35:21;;;;;;;4.90;3.60;;;;;;;17.02;48.07;94874.88;2618583;47;20273;-83
2022/04/30 05:37:56;;;;;;;3.43;2.67;;;;;;;15.52;48.26;94638.63;2619439;39;20583;-81
2022/04/30 05:40:27;;;;;;;5.03;3.87;;;;;;;16.44;49.46;94829.09;2618653;54;20256;-81
2022/04/30 05:43:25;;;;;;;3.27;3.07;;;;;;;15.59;52.32;94902.81;2618365;54;20157;-80
2022/04/30 05:45:54;;;;;;;4.25;3.90;;;;;;;15.41;52.92;94896.03;2617383;54;20407;-79
2022/04/30 05:48:40;;;;;;;4.33;3.50;;;;;;;15.21;53.47;94868.56;2618241;54;20156;-79
2022/04/30 05:54:42;;;;;;;4.77;3.97;;;;;;;13.88;52.40;94633.06;2617930;47;20148;-81
2022/04/30 06:35:32;;;;;;;4.30;3.40;;;;;;;15.12;54.29;94909.06;2616292;47;20149;-84
2022/04/30 06:38:24;;;;;;;4.23;3.00;;;;;;;15.49;53.38;94867.63;2616459;54;20164;-83
2022/04/30 06:41:11;;;;;;;3.83;3.27;;;;;;;15.35;53.12;94853.84;2616268;54;20186;-81
2022/04/30 06:44:22;;;;;;;3.33;3.03;;;;;;;14.42;52.24;94726.69;2616637;47;20144;-82
2022/04/30 06:46:55;;;;;;;4.57;3.77;;;;;;;15.89;51.08;94856.16;2617870;54;20161;-83
2022/04/30 06:49:32;;;;;;;3.47;2.63;;;;;;;15.08;51.24;94794.88;2617826;54;20180;-84
2022/04/30 06:52:31;;;;;;;4.03;3.67;;;;;;;15.26;51.06;94798.78;2616849;47;20157;-82
2022/04/30 06:58:05;;;;;;;4.10;3.70;;;;;;;13.83;50.69;94625.84;2617127;47;20236;-79
2022/04/30 07:03:24;;;;;;;4.20;3.90;;;;;;;14.70;51.67;94831.97;2617411;47;20495;-81
2022/04/30 07:05:55;;;;;;;4.30;2.70;;;;;;;15.88;51.58;94892.56;2617925;47;20636;-82
2022/04/30 07:08:38;;;;;;;3.63;2.90;;;;;;;15.75;49.68;94850.97;2617447;54;20187;-83
2022/04/30 07:11:28;;;;;;;4.60;3.90;;;;;;;14.59;49.84;94665.75;2617926;39;20750;-83
2022/04/30 07:14:29;;;;;;;4.90;3.08;;;;;;;15.41;50.89;94890.34;2617601;47;20452;-84
2022/04/30 07:16:58;;;;;;;4.35;3.83;;;;;;;15.20;50.63;94858.56;2616344;47;20404;-81
2022/04/30 07:19:37;;;;;;;3.67;3.47;;;;;;;16.03;48.58;94878.50;2616560;54;20156;-79
2022/04/30 07:25:01;;;;;;;2.63;2.43;;;;;;;15.50;49.07;94841.25;2617759;46;20284;-81
2022/04/30 07:27:30;;;;;;;3.17;2.97;;;;;;;15.36;49.60;94889.53;2617551;47;20145;-82
2022/04/30 07:29:59;;;;;;;3.90;3.07;;;;;;;15.66;49.55;94894.34;2617295;54;20157;-82
2022/04/30 07:32:44;;;;;;;3.60;3.03;;;;;;;15.43;48.99;94764.78;2618249;54;20148;-84
2022/04/30 07:35:34;;;;;;;3.43;2.07;;;;;;;15.78;49.34;94868.84;2617308;54;20172;-82
2022/04/30 07:38:03;;;;;;;3.17;2.67;;;;;;;15.25;49.61;94796.59;2617810;54;20145;-82
2022/04/30 07:40:35;;;;;;;3.50;3.13;;;;;;;16.00;49.55;94884.19;2617550;54;20155;-82
2022/04/30 07:43:14;;;;;;;3.47;3.27;;;;;;;15.74;48.01;94835.25;2617485;47;20145;-80
2022/04/30 07:45:48;;;;;;;2.70;2.33;;;;;;;14.61;49.02;94657.22;2617643;47;20157;-84
2022/04/30 07:48:18;;;;;;;3.70;3.40;;;;;;;15.15;49.82;94837.09;2617989;54;20153;-81
2022/04/30 07:50:49;;;;;;;3.00;2.80;;;;;;;15.47;48.19;94784.81;2617431;54;20145;-81
2022/04/30 07:53:35;;;;;;;3.13;2.93;;;;;;;15.84;47.33;94804.00;2618044;47;20148;-82
2022/04/30 07:56:13;;;;;;;3.53;3.23;;;;;;;15.77;47.72;94868.13;2617834;47;20145;-81
2022/04/30 07:59:32;;;;;;;2.50;2.30;;;;;;;14.18;48.65;94632.94;2617737;47;20155;-82
2022/04/30 08:02:01;;;;;;;5.50;2.63;;;;;;;15.71;48.00;94835.91;2616084;54;20697;-81
2022/04/30 08:04:45;;;;;;;2.43;2.23;;;;;;;15.76;48.76;94766.00;2616740;47;20500;-81
2022/04/30 08:07:20;;;;;;;3.93;2.87;;;;;;;16.36;48.07;94817.56;2617760;47;20177;-81
2022/04/30 08:10:25;;;;;;;;;;;;;;;;;;;;;
2022/04/30 08:16:03;;;;;;;2.30;2.10;;;;;;;17.34;44.11;94825.09;2615923;47;20156;-82
2022/04/30 08:18:32;;;;;;;3.17;2.50;;;;;;;14.13;46.76;94595.09;2617565;47;20148;-83
2022/04/30 08:21:01;;;;;;;3.13;2.87;;;;;;;16.77;45.96;94850.25;2617551;54;20187;-79
2022/04/30 08:23:41;;;;;;;2.10;1.87;;;;;;;17.18;45.66;94799.19;2618313;47;20153;-80
2022/04/30 08:26:12;;;;;;;2.75;2.45;;;;;;;17.79;42.79;94823.34;2616141;47;20380;-80
2022/04/30 08:28:58;;;;;;;2.50;2.38;;;;;;;18.40;42.29;94853.13;2617626;54;21144;-81
2022/04/30 08:31:29;;;;;;;2.93;2.50;;;;;;;17.93;41.81;94817.72;2618564;54;20145;-79
2022/04/30 08:34:02;;;;;;;3.43;3.00;;;;;;;17.26;44.00;94850.78;2618613;39;20541;-80
2022/04/30 08:36:32;;;;;;;2.87;2.00;;;;;;;17.68;43.16;94824.69;2616267;54;20164;-79
2022/04/30 08:39:57;;;;;;;2.20;2.00;;;;;;;16.37;43.01;94672.50;2617188;54;20160;-80
2022/04/30 08:43:09;;;;;;;2.60;2.33;;;;;;;16.04;43.63;94580.72;2616499;54;20141;-83
2022/04/30 08:49:12;;;;;;;1.63;1.53;;;;;;;19.01;42.61;94855.56;2616612;47;20159;-80
2022/04/30 08:51:41;;;;;;;3.13;2.87;;;;;;;17.81;41.87;94748.16;2617216;47;20235;-77
2022/04/30 08:57:38;;;;;;;2.50;2.03;;;;;;;18.27;43.64;94822.97;2617273;47;20163;-78
2022/04/30 09:43:16;;;;;;;0.80;0.80;;;;;;;17.58;41.89;94601.22;2615360;47;20159;-80
2022/04/30 09:45:46;;;;;;;1.30;1.20;;;;;;;18.90;41.33;94806.03;2618775;54;20160;-79
2022/04/30 09:56:36;;;;;;;1.00;1.00;;;;;;;18.95;39.53;94796.03;2618769;47;20249;-78
2022/04/30 09:59:11;;;;;;;1.27;1.27;;;;;;;19.12;38.89;94753.72;2618506;47;20256;-79
2022/04/30 10:01:51;;;;;;;1.00;1.00;;;;;;;19.85;39.50;94811.91;2618867;54;20197;-81
2022/04/30 10:04:23;;;;;;;1.00;1.00;;;;;;;19.38;39.95;94814.06;2618187;54;20168;-82
2022/04/30 10:06:53;;;;;;;1.23;1.10;;;;;;;19.22;39.75;94787.47;2618621;54;20145;-83
2022/04/30 10:09:26;;;;;;;1.30;1.20;;;;;;;18.52;41.22;94731.31;2619225;39;20522;-83
2022/04/30 10:12:11;;;;;;;1.70;1.60;;;;;;;18.01;40.84;94757.63;2618845;47;20148;-85
2022/04/30 10:37:01;;;;;;;;;;;;;;;;;;;;;
2022/04/30 10:39:32;;;;;;;4.05;1.33;;;;;;;19.91;37.65;94730.00;2617886;54;20191;-79
2022/04/30 10:42:01;;;;;;;2.17;1.23;;;;;;;19.91;37.04;94732.88;2618785;54;20145;-79
2022/04/30 10:44:32;;;;;;;1.15;1.05;;;;;;;20.14;36.85;94752.22;2618536;47;20665;-76
2022/04/30 10:47:19;;;;;;;1.58;1.35;;;;;;;19.11;39.56;94680.50;2618687;47;20281;-80
2022/04/30 10:49:49;;;;;;;1.75;1.65;;;;;;;19.74;37.34;94744.41;2618519;54;20149;-78
2022/04/30 10:52:31;;;;;;;2.00;1.90;;;;;;;17.94;40.50;94730.34;2618112;47;20257;-79
2022/04/30 10:55:05;;;;;;;1.57;1.47;;;;;;;16.99;40.69;94570.13;2618570;54;20157;-79
2022/04/30 11:00:41;;;;;;;1.53;1.43;;;;;;;16.61;40.47;94524.06;2618421;47;20153;-79
2022/04/30 11:03:15;;;;;;;1.20;1.10;;;;;;;17.34;40.08;94593.22;2618516;46;20145;-79
2022/04/30 11:12:07;;;;;;;1.33;1.33;;;;;;;18.35;40.21;94708.31;2618028;47;20117;-82
2022/04/30 11:14:36;;;;;;;1.63;1.10;;;;;;;19.37;39.49;94760.19;2617582;47;20145;-79
2022/04/30 11:17:06;;;;;;;2.33;1.10;;;;;;;18.11;41.01;94734.72;2616679;54;20184;-79
2022/04/30 11:19:43;;;;;;;1.30;1.30;;;;;;;19.43;39.69;94760.19;2617234;47;20157;-79
2022/04/30 11:22:13;;;;;;;1.10;1.08;;;;;;;19.64;38.70;94740.81;2617853;54;20236;-79
2022/04/30 11:24:44;;;;;;;1.35;1.25;;;;;;;19.55;37.85;94765.22;2618297;54;20181;-79
2022/04/30 11:27:15;;;;;;;1.33;1.23;;;;;;;19.62;38.56;94747.28;2618816;54;20185;-79
2022/04/30 11:29:52;;;;;;;1.13;1.13;;;;;;;19.42;39.40;94761.63;2617684;47;20141;-78
2022/04/30 11:32:26;;;;;;;1.65;1.10;;;;;;;18.48;39.13;94738.47;2617524;47;20145;-79
2022/04/30 11:34:57;;;;;;;1.23;1.00;;;;;;;19.05;39.38;94726.44;2617511;54;20202;-80
2022/04/30 11:37:26;;;;;;;1.03;1.03;;;;;;;18.93;39.09;94746.50;2617817;47;20149;-80
2022/04/30 11:39:55;;;;;;;2.13;2.03;;;;;;;17.92;40.54;94738.91;2617892;54;20149;-79
2022/04/30 11:42:33;;;;;;;1.20;1.20;;;;;;;18.43;39.42;94724.84;2617794;54;20145;-79
2022/04/30 11:45:02;;;;;;;1.13;1.03;;;;;;;18.51;38.92;94749.94;2617827;54;20160;-79
2022/04/30 11:47:31;;;;;;;1.60;1.50;;;;;;;18.23;39.42;94708.25;2617808;54;20273;-80
2022/04/30 11:50:10;;;;;;;1.27;1.27;;;;;;;18.52;39.71;94714.81;2617899;47;20153;-79
2022/04/30 11:52:40;;;;;;;1.00;0.90;;;;;;;18.74;38.86;94688.34;2618214;46;20601;-80
2022/04/30 11:55:13;;;;;;;0.93;0.93;;;;;;;19.23;39.54;94745.81;2617963;54;20145;-80
2022/04/30 11:57:46;;;;;;;1.17;1.08;;;;;;;19.59;38.72;94745.84;2617807;47;20149;-79
2022/04/30 12:00:17;;;;;;;0.80;0.80;;;;;;;18.94;39.46;94682.66;2617632;54;20164;-80
2022/04/30 12:02:49;;;;;;;0.70;0.70;;;;;;;19.69;37.99;94745.84;2617587;54;20175;-81
2022/04/30 12:05:19;;;;;;;1.30;1.20;;;;;;;19.49;38.06;94725.75;2617607;47;20457;-81
2022/04/30 12:07:51;;;;;;;0.98;0.98;;;;;;;19.68;38.33;94744.41;2617973;54;20148;-80
2022/04/30 12:10:26;;;;;;;1.48;1.38;;;;;;;18.87;39.64;94740.72;2618334;54;20149;-82
2022/04/30 12:12:57;;;;;;;1.10;1.10;;;;;;;18.73;39.22;94701.25;2617825;54;20156;-83
2022/04/30 12:15:27;;;;;;;1.00;1.00;;;;;;;18.94;39.34;94722.84;2618470;39;20234;-84
2022/04/30 12:26:36;;;;;;;0.97;0.97;;;;;;;17.46;40.91;94662.00;2617868;47;20149;-79
2022/04/30 12:29:24;;;;;;;1.00;1.00;;;;;;;17.88;41.62;94715.28;2617594;54;20712;-79
2022/04/30 12:31:54;;;;;;;2.40;1.23;;;;;;;17.46;42.55;94730.72;2617683;47;20298;-79
2022/04/30 12:34:25;;;;;;;1.83;1.70;;;;;;;17.38;43.58;94733.50;2617831;47;20232;-79
2022/04/30 12:36:55;;;;;;;1.47;1.40;;;;;;;17.52;43.36;94676.34;2617588;54;20157;-80
2022/04/30 12:39:25;;;;;;;1.50;1.40;;;;;;;17.47;43.85;94717.84;2617740;47;20140;-81
2022/04/30 12:41:57;;;;;;;5.27;1.27;;;;;;;17.48;43.56;94722.16;2615967;47;20575;-80
2022/04/30 12:44:30;;;;;;;0.90;0.90;;;;;;;17.44;44.46;94733.56;2617236;54;20145;-81
2022/04/30 12:46:58;;;;;;;1.47;1.37;;;;;;;16.74;44.87;94673.59;2617446;47;20157;-80
2022/04/30 12:49:27;;;;;;;1.13;1.13;;;;;;;17.17;45.00;94703.31;2617559;54;20160;-80
2022/04/30 12:51:56;;;;;;;1.17;1.17;;;;;;;17.42;44.90;94733.56;2617246;54;20157;-80
2022/04/30 12:54:25;;;;;;;0.70;0.70;;;;;;;17.30;44.52;94733.47;2617395;47;20183;-80
2022/04/30 12:56:54;;;;;;;3.07;0.93;;;;;;;17.32;46.31;94739.94;2617083;47;20684;-80
2022/04/30 12:59:25;;;;;;;1.30;1.30;;;;;;;16.23;50.09;94738.81;2617432;54;20624;-80
2022/04/30 13:01:56;;;;;;;1.43;1.33;;;;;;;16.18;52.37;94743.00;2617944;39;20569;-79
2022/04/30 13:04:25;;;;;;;3.07;1.50;;;;;;;16.20;52.16;94740.19;2617557;47;20141;-80
2022/04/30 13:06:54;;;;;;;1.40;1.30;;;;;;;15.72;54.08;94731.69;2617255;49;20392;-80
